Terminal Aerodrome Forecast
Issued by NWS Sioux Falls, SD

Home | Current Version | Previous Version | Text Only | Print | Product List | Glossary On
Versions: 1 2 3 4 5 6 7 8 9 10 11 12 13 14 15 16 17 18
621
FTUS43 KFSD 182348
TAFFSD
TAF
KFSD 182348Z 1900/1924 17009KT P6SM FEW250
     FM191100 17007KT P6SM BKN020
     FM191300 17007KT 5SM BR OVC012
     FM191500 17008KT 2SM BR OVC008
     FM191800 17009KT 5SM BR OVC015=

USA.gov is the U.S. government's official web portal to all federal, state and local government web resources and services.